createdAt,value
2022-09-09T00:00:41.849Z,25.70
2022-09-09T00:01:24.664Z,25.69
2022-09-09T00:02:18.330Z,25.67
2022-09-09T00:03:03.728Z,25.69
2022-09-09T00:03:58.303Z,25.68
2022-09-09T00:04:51.800Z,25.69
2022-09-09T00:05:43.138Z,25.70
2022-09-09T00:06:40.540Z,25.69
2022-09-09T00:07:37.724Z,25.71
2022-09-09T00:08:34.955Z,25.70
2022-09-09T00:09:25.974Z,25.68
2022-09-09T00:10:19.271Z,25.65
2022-09-09T00:11:10.498Z,25.64
2022-09-09T00:11:54.620Z,25.62
2022-09-09T00:12:53.311Z,25.62
2022-09-09T00:14:07.655Z,25.64
2022-09-09T00:14:49.790Z,25.66
2022-09-09T00:15:41.631Z,25.64
2022-09-09T00:16:23.719Z,25.63
2022-09-09T00:17:14.042Z,25.63
2022-09-09T00:18:12.533Z,25.62
2022-09-09T00:19:07.343Z,25.62
2022-09-09T00:20:10.741Z,25.62
2022-09-09T00:21:07.669Z,25.63
2022-09-09T00:22:02.764Z,25.59
2022-09-09T00:23:05.432Z,25.59
2022-09-09T00:24:00.947Z,25.60
2022-09-09T00:24:52.126Z,25.61
2022-09-09T00:26:00.082Z,25.58
2022-09-09T00:26:50.720Z,25.61
2022-09-09T00:27:43.471Z,25.61
2022-09-09T00:28:40.378Z,25.60
2022-09-09T00:29:43.181Z,25.60
2022-09-09T00:30:38.185Z,25.57
2022-09-09T00:31:35.678Z,25.54
2022-09-09T00:32:27.901Z,25.60
2022-09-09T00:33:32.261Z,25.57
2022-09-09T00:34:29.392Z,25.50
2022-09-09T00:35:30.393Z,25.53
2022-09-09T00:36:24.010Z,25.53
2022-09-09T00:37:19.114Z,25.49
2022-09-09T00:38:12.860Z,25.48
2022-09-09T00:39:06.404Z,25.48
2022-09-09T00:39:56.795Z,25.51
2022-09-09T00:40:47.322Z,25.46
2022-09-09T00:41:40.976Z,25.46
2022-09-09T00:42:38.630Z,25.46
2022-09-09T00:43:39.114Z,25.46
2022-09-09T00:44:46.579Z,25.43
2022-09-09T00:45:50.533Z,25.45
2022-09-09T00:46:52.990Z,25.40
2022-09-09T00:47:56.895Z,25.36
2022-09-09T00:48:48.175Z,25.37
2022-09-09T00:49:49.396Z,25.39
2022-09-09T00:50:53.836Z,25.43
2022-09-09T00:51:59.194Z,25.41
2022-09-09T00:53:11.740Z,25.38
2022-09-09T00:54:17.576Z,25.37
2022-09-09T00:55:24.310Z,25.42
2022-09-09T00:56:14.131Z,25.38
2022-09-09T00:56:58.725Z,25.33
2022-09-09T00:57:56.128Z,25.38
2022-09-09T00:58:49.597Z,25.35
2022-09-09T00:59:47.149Z,25.38
2022-09-09T01:00:39.787Z,25.35
2022-09-09T01:01:33.197Z,25.38
2022-09-09T01:02:25.548Z,25.35
2022-09-09T01:03:18.616Z,25.33
2022-09-09T01:04:10.609Z,25.33
2022-09-09T01:05:00.164Z,25.33
2022-09-09T01:05:53.839Z,25.32
2022-09-09T01:06:46.193Z,25.32
2022-09-09T01:07:36.209Z,25.31
2022-09-09T01:08:33.502Z,25.32
2022-09-09T01:09:40.249Z,25.37
2022-09-09T01:10:53.640Z,25.34
2022-09-09T01:11:38.958Z,25.36
2022-09-09T01:12:30.751Z,25.32
2022-09-09T01:13:29.929Z,25.28
2022-09-09T01:14:26.883Z,25.30
2022-09-09T01:15:19.421Z,25.28
2022-09-09T01:16:11.036Z,25.30
2022-09-09T01:17:01.932Z,25.30
2022-09-09T01:17:53.958Z,25.27
2022-09-09T01:19:55.341Z,25.30
2022-09-09T01:21:01.042Z,25.31
2022-09-09T01:22:03.099Z,25.32
2022-09-09T01:22:56.818Z,25.27
2022-09-09T01:24:14.211Z,25.30
2022-09-09T01:25:12.050Z,25.26
2022-09-09T01:26:11.444Z,25.26
2022-09-09T01:27:02.402Z,25.23
2022-09-09T01:27:54.346Z,25.26
2022-09-09T01:28:52.282Z,25.25
2022-09-09T01:29:46.229Z,25.23
2022-09-09T01:30:39.235Z,25.20
2022-09-09T01:31:30.121Z,25.23
2022-09-09T01:32:34.189Z,25.23
2022-09-09T01:33:29.049Z,25.26
2022-09-09T01:35:31.907Z,25.30
2022-09-09T01:36:14.618Z,25.28
2022-09-09T01:37:08.281Z,25.26
2022-09-09T01:38:01.211Z,25.25
2022-09-09T01:38:58.842Z,25.28
2022-09-09T01:39:54.276Z,25.29
2022-09-09T01:40:43.047Z,25.30
2022-09-09T01:41:32.724Z,25.28
2022-09-09T01:42:24.781Z,25.29
2022-09-09T01:43:14.192Z,25.27
2022-09-09T01:44:03.853Z,25.28
2022-09-09T01:45:01.674Z,25.24
2022-09-09T01:45:52.358Z,25.24
2022-09-09T01:46:43.856Z,25.23
2022-09-09T01:47:38.559Z,25.21
2022-09-09T01:48:33.462Z,25.25
2022-09-09T01:49:27.053Z,25.24
2022-09-09T01:50:26.371Z,25.26
2022-09-09T01:51:16.527Z,25.27
2022-09-09T01:52:06.646Z,25.25
2022-09-09T01:52:56.516Z,25.22
2022-09-09T01:53:47.095Z,25.21
2022-09-09T01:54:36.155Z,25.24
2022-09-09T01:55:29.575Z,25.24
2022-09-09T01:56:20.442Z,25.21
2022-09-09T01:57:02.872Z,25.20
2022-09-09T01:58:06.297Z,25.21
2022-09-09T01:59:04.656Z,25.25
2022-09-09T01:59:57.169Z,25.27
2022-09-09T02:00:51.243Z,25.25
2022-09-09T02:01:56.355Z,25.23
2022-09-09T02:02:51.623Z,25.23
2022-09-09T02:03:41.683Z,25.25
2022-09-09T02:04:28.781Z,25.26
2022-09-09T02:05:31.099Z,25.26
2022-09-09T02:06:30.535Z,25.26
2022-09-09T02:07:22.926Z,25.25
2022-09-09T02:08:11.716Z,25.24
2022-09-09T02:09:08.932Z,25.25
2022-09-09T02:09:59.164Z,25.23
2022-09-09T02:11:06.092Z,25.25
2022-09-09T02:11:59.438Z,25.19
2022-09-09T02:12:49.341Z,25.19
2022-09-09T02:13:41.019Z,25.18
2022-09-09T02:14:35.318Z,25.24
2022-09-09T02:15:29.317Z,25.25
2022-09-09T02:16:25.211Z,25.23
2022-09-09T02:17:18.466Z,25.20
2022-09-09T02:18:12.524Z,25.22
2022-09-09T02:19:08.575Z,25.23
2022-09-09T02:19:58.247Z,25.21
2022-09-09T02:20:49.802Z,25.22
2022-09-09T02:21:43.247Z,25.22
2022-09-09T02:22:36.024Z,25.18
2022-09-09T02:23:29.421Z,25.17
2022-09-09T02:24:27.800Z,25.19
2022-09-09T02:25:17.752Z,25.17
2022-09-09T02:26:08.897Z,25.15
2022-09-09T02:26:59.257Z,25.16
2022-09-09T02:27:48.929Z,25.15
2022-09-09T02:28:39.423Z,25.17
2022-09-09T02:29:35.616Z,25.15
2022-09-09T02:30:27.904Z,25.15
2022-09-09T02:31:19.977Z,25.16
2022-09-09T02:32:09.582Z,25.16
2022-09-09T02:32:59.348Z,25.14
2022-09-09T02:33:50.539Z,25.16
2022-09-09T02:35:20.242Z,25.15
2022-09-09T02:36:15.533Z,25.19
2022-09-09T02:37:10.095Z,25.17
2022-09-09T02:38:02.524Z,25.19
2022-09-09T02:38:55.216Z,25.15
2022-09-09T02:39:55.672Z,25.11
2022-09-09T02:40:48.825Z,25.14
2022-09-09T02:41:39.988Z,25.11
2022-09-09T02:42:32.851Z,25.12
2022-09-09T02:43:26.431Z,25.15
2022-09-09T02:45:22.038Z,25.10
2022-09-09T02:46:16.138Z,25.08
2022-09-09T02:47:21.157Z,25.08
2022-09-09T02:48:25.449Z,25.10
2022-09-09T02:49:19.002Z,25.15
2022-09-09T02:50:18.169Z,25.11
2022-09-09T02:51:02.264Z,25.11
2022-09-09T02:51:59.911Z,25.14
2022-09-09T02:52:41.827Z,25.13
2022-09-09T02:53:32.971Z,25.13
2022-09-09T02:54:37.085Z,25.14
2022-09-09T02:55:32.893Z,25.12
2022-09-09T02:56:28.616Z,25.13
2022-09-09T02:57:24.419Z,25.11
2022-09-09T02:58:16.031Z,25.12
2022-09-09T02:59:05.906Z,25.09
2022-09-09T03:00:02.414Z,25.13
2022-09-09T03:00:54.072Z,25.10
2022-09-09T03:01:45.029Z,25.12
2022-09-09T03:02:38.484Z,25.12
2022-09-09T03:03:30.360Z,25.10
2022-09-09T03:04:22.418Z,25.15
2022-09-09T03:05:22.370Z,25.14
2022-09-09T03:06:13.966Z,25.09
2022-09-09T03:07:07.338Z,25.08
2022-09-09T03:08:00.014Z,25.05
2022-09-09T03:08:50.271Z,25.09
2022-09-09T03:09:44.029Z,25.13
2022-09-09T03:11:40.623Z,25.11
2022-09-09T03:12:34.226Z,25.12
2022-09-09T03:13:28.014Z,25.12
2022-09-09T03:14:21.935Z,25.08
2022-09-09T03:15:18.829Z,25.09
2022-09-09T03:16:15.219Z,25.07
2022-09-09T03:17:08.559Z,25.06
2022-09-09T03:18:02.209Z,25.09
2022-09-09T03:18:55.079Z,25.09
2022-09-09T03:19:49.638Z,25.09
2022-09-09T03:20:47.029Z,25.06
2022-09-09T03:21:41.114Z,25.03
2022-09-09T03:22:34.885Z,25.06
2022-09-09T03:23:28.598Z,25.10
2022-09-09T03:24:23.110Z,25.07
2022-09-09T03:25:16.281Z,25.08
2022-09-09T03:27:12.085Z,25.10
2022-09-09T03:28:04.895Z,25.12
2022-09-09T03:29:10.473Z,25.08
2022-09-09T03:30:03.609Z,25.09
2022-09-09T03:30:55.637Z,25.06
2022-09-09T03:31:51.114Z,25.09
2022-09-09T03:32:47.103Z,25.08
2022-09-09T03:33:39.098Z,25.04
2022-09-09T03:34:29.505Z,25.06
2022-09-09T03:35:21.272Z,25.03
2022-09-09T03:36:15.268Z,25.03
2022-09-09T03:37:05.885Z,25.02
2022-09-09T03:37:57.262Z,25.01
2022-09-09T03:38:50.099Z,25.04
2022-09-09T03:39:41.618Z,25.01
2022-09-09T03:40:32.622Z,25.07
2022-09-09T03:41:29.524Z,25.01
2022-09-09T03:42:18.137Z,25.08
2022-09-09T03:43:08.701Z,25.05
2022-09-09T03:44:00.682Z,25.08
2022-09-09T03:44:51.818Z,25.08
2022-09-09T03:45:42.971Z,25.06
2022-09-09T03:46:38.416Z,25.02
2022-09-09T03:47:28.992Z,25.07
2022-09-09T03:48:21.582Z,25.06
2022-09-09T03:49:12.434Z,25.04
2022-09-09T03:50:01.925Z,25.07
2022-09-09T03:50:55.919Z,25.04
2022-09-09T03:51:45.174Z,25.03
2022-09-09T03:52:35.206Z,25.06
2022-09-09T03:53:24.132Z,25.02
2022-09-09T03:54:14.190Z,25.06
2022-09-09T03:55:03.737Z,25.01
2022-09-09T03:55:58.567Z,25.05
2022-09-09T03:56:49.221Z,25.07
2022-09-09T03:57:41.276Z,25.03
2022-09-09T03:58:33.374Z,25.04
2022-09-09T03:59:23.260Z,24.98
2022-09-09T04:00:15.877Z,25.03
2022-09-09T04:01:18.571Z,25.02
2022-09-09T04:02:08.923Z,25.01
2022-09-09T04:03:01.780Z,24.99
2022-09-09T04:03:53.498Z,25.01
2022-09-09T04:04:44.273Z,25.02
2022-09-09T04:05:37.316Z,25.04
2022-09-09T04:06:33.238Z,25.02
2022-09-09T04:07:24.777Z,25.03
2022-09-09T04:08:17.402Z,25.01
2022-09-09T04:09:08.436Z,25.00
2022-09-09T04:09:59.126Z,25.01
2022-09-09T04:10:50.048Z,24.96
2022-09-09T04:11:47.969Z,25.01
2022-09-09T04:12:38.377Z,24.99
2022-09-09T04:13:29.218Z,25.04
2022-09-09T04:14:19.723Z,24.99
2022-09-09T04:15:09.009Z,25.02
2022-09-09T04:16:00.347Z,25.04
2022-09-09T04:16:55.210Z,25.01
2022-09-09T04:17:45.759Z,25.06
2022-09-09T04:18:36.140Z,25.01
2022-09-09T04:19:26.358Z,24.98
2022-09-09T04:20:18.122Z,24.94
2022-09-09T04:21:12.691Z,24.95
2022-09-09T04:22:04.149Z,24.96
2022-09-09T04:22:55.926Z,24.97
2022-09-09T04:23:47.320Z,25.01
2022-09-09T04:24:39.041Z,24.99
2022-09-09T04:25:32.770Z,24.97
2022-09-09T04:26:22.588Z,24.95
2022-09-09T04:27:11.215Z,24.98
2022-09-09T04:27:59.293Z,24.95
2022-09-09T04:28:49.183Z,24.96
2022-09-09T04:29:38.517Z,24.97
2022-09-09T04:30:25.435Z,24.99
2022-09-09T04:31:22.397Z,24.99
2022-09-09T04:32:11.024Z,25.01
2022-09-09T04:33:01.039Z,24.98
2022-09-09T04:33:50.660Z,24.96
2022-09-09T04:35:18.207Z,24.98
2022-09-09T04:36:12.216Z,24.96
2022-09-09T04:37:01.071Z,24.97
2022-09-09T04:37:49.998Z,24.98
2022-09-09T04:38:38.693Z,24.97
2022-09-09T04:39:27.005Z,25.00
2022-09-09T04:40:14.520Z,24.93
2022-09-09T04:41:05.739Z,24.96
2022-09-09T04:41:56.560Z,24.99
2022-09-09T04:42:44.505Z,24.99
2022-09-09T04:43:33.660Z,24.99
2022-09-09T04:44:25.027Z,24.97
2022-09-09T04:45:16.755Z,24.97
2022-09-09T04:46:12.790Z,25.01
2022-09-09T04:47:01.847Z,25.02
2022-09-09T04:47:50.879Z,25.03
2022-09-09T04:48:39.102Z,24.97
2022-09-09T04:49:27.505Z,24.97
2022-09-09T04:50:17.426Z,25.00
2022-09-09T04:51:05.379Z,24.99
2022-09-09T04:51:57.560Z,25.02
2022-09-09T04:52:46.323Z,24.98
2022-09-09T04:53:35.999Z,25.00
2022-09-09T04:54:25.928Z,24.97
2022-09-09T04:55:14.665Z,24.97
2022-09-09T04:56:03.910Z,24.98
2022-09-09T04:56:55.936Z,24.96
2022-09-09T04:57:45.603Z,24.98
2022-09-09T04:58:33.649Z,24.97
2022-09-09T04:59:22.139Z,24.97
2022-09-09T05:00:10.104Z,24.97
2022-09-09T05:00:56.318Z,24.98
2022-09-09T05:01:46.926Z,24.97
2022-09-09T05:02:37.633Z,24.99
2022-09-09T05:03:26.966Z,24.97
2022-09-09T05:04:15.981Z,24.95
2022-09-09T05:05:03.956Z,24.94
2022-09-09T05:05:55.233Z,24.94
2022-09-09T05:06:46.293Z,24.97
2022-09-09T05:07:43.046Z,24.97
2022-09-09T05:08:35.140Z,24.97
2022-09-09T05:09:25.893Z,24.95
2022-09-09T05:10:16.867Z,24.96
2022-09-09T05:11:13.082Z,24.98
2022-09-09T05:12:04.893Z,24.95
2022-09-09T05:12:57.889Z,24.97
2022-09-09T05:13:50.287Z,24.95
2022-09-09T05:15:20.397Z,24.99
2022-09-09T05:16:15.074Z,24.96
2022-09-09T05:17:03.807Z,24.96
2022-09-09T05:17:53.164Z,24.94
2022-09-09T05:18:43.932Z,24.96
2022-09-09T05:19:37.194Z,24.95
2022-09-09T05:20:22.446Z,24.96
2022-09-09T05:21:18.461Z,24.98
2022-09-09T05:22:08.592Z,24.94
2022-09-09T05:22:57.754Z,25.00
2022-09-09T05:23:52.075Z,24.96
2022-09-09T05:25:20.334Z,24.94
2022-09-09T05:26:17.227Z,24.95
2022-09-09T05:27:05.569Z,24.92
2022-09-09T05:27:53.685Z,24.95
2022-09-09T05:28:41.636Z,24.92
2022-09-09T05:29:30.508Z,24.95
2022-09-09T05:30:17.686Z,24.97
2022-09-09T05:31:19.532Z,24.97
2022-09-09T05:32:11.475Z,24.94
2022-09-09T05:33:01.814Z,24.95
2022-09-09T05:33:52.982Z,24.97
2022-09-09T05:34:44.681Z,24.97
2022-09-09T05:35:36.114Z,24.93
2022-09-09T05:36:37.114Z,24.94
2022-09-09T05:37:28.592Z,24.94
2022-09-09T05:38:20.375Z,24.93
2022-09-09T05:39:11.983Z,24.96
2022-09-09T05:40:04.475Z,24.92
2022-09-09T05:40:56.301Z,24.97
2022-09-09T05:41:55.872Z,24.98
2022-09-09T05:42:49.264Z,24.96
2022-09-09T05:43:39.852Z,24.99
2022-09-09T05:44:29.937Z,24.94
2022-09-09T05:45:19.529Z,24.91
2022-09-09T05:46:12.349Z,24.95
2022-09-09T05:47:07.762Z,24.96
2022-09-09T05:47:56.422Z,24.98
2022-09-09T05:48:44.520Z,24.95
2022-09-09T05:49:33.524Z,25.00
2022-09-09T05:50:22.038Z,24.96
2022-09-09T05:51:12.021Z,24.94
2022-09-09T05:52:10.881Z,24.93
2022-09-09T05:53:01.111Z,24.96
2022-09-09T05:53:52.131Z,24.95
2022-09-09T05:54:44.688Z,24.95
2022-09-09T05:55:36.097Z,24.98
2022-09-09T05:56:28.898Z,24.97
2022-09-09T05:58:22.469Z,24.93
2022-09-09T05:59:12.602Z,24.93
2022-09-09T06:00:05.553Z,24.91
2022-09-09T06:00:55.518Z,24.92
2022-09-09T06:01:50.165Z,24.90
2022-09-09T06:02:41.609Z,24.88
2022-09-09T06:03:34.358Z,24.89
2022-09-09T06:04:25.805Z,24.91
2022-09-09T06:05:17.493Z,24.95
2022-09-09T06:06:18.420Z,24.95
2022-09-09T06:08:12.401Z,24.92
2022-09-09T06:09:03.138Z,24.93
2022-09-09T06:09:55.799Z,24.90
2022-09-09T06:10:47.289Z,24.92
2022-09-09T06:11:42.127Z,24.90
2022-09-09T06:12:34.094Z,24.91
2022-09-09T06:13:25.498Z,24.95
2022-09-09T06:14:15.490Z,24.89
2022-09-09T06:15:04.565Z,24.91
2022-09-09T06:16:00.180Z,24.94
2022-09-09T06:17:00.273Z,24.93
2022-09-09T06:17:52.000Z,24.87
2022-09-09T06:18:43.654Z,24.87
2022-09-09T06:19:32.820Z,24.90
2022-09-09T06:20:21.616Z,24.89
2022-09-09T06:21:11.509Z,24.86
2022-09-09T06:22:09.188Z,24.85
2022-09-09T06:22:59.379Z,24.89
2022-09-09T06:23:47.893Z,24.89
2022-09-09T06:24:39.221Z,24.87
2022-09-09T06:25:31.153Z,24.87
2022-09-09T06:26:23.088Z,24.89
2022-09-09T06:27:13.769Z,24.87
2022-09-09T06:28:03.169Z,24.88
2022-09-09T06:28:53.896Z,24.85
2022-09-09T06:29:42.028Z,24.85
2022-09-09T06:30:30.383Z,24.88
2022-09-09T06:31:29.736Z,24.89
2022-09-09T06:32:17.800Z,24.86
2022-09-09T06:33:06.062Z,24.84
2022-09-09T06:33:58.083Z,24.84
2022-09-09T06:34:49.692Z,24.77
2022-09-09T06:35:40.220Z,24.81
2022-09-09T06:36:38.115Z,24.80
2022-09-09T06:37:28.588Z,24.82
2022-09-09T06:38:18.939Z,24.81
2022-09-09T06:39:14.456Z,24.83
2022-09-09T06:40:03.730Z,24.85
2022-09-09T06:40:55.735Z,24.88
2022-09-09T06:41:54.360Z,24.87
2022-09-09T06:42:40.688Z,24.83
2022-09-09T06:43:30.806Z,24.84
2022-09-09T06:44:21.622Z,24.82
2022-09-09T06:45:10.716Z,24.79
2022-09-09T06:46:11.345Z,24.79
2022-09-09T06:47:07.854Z,24.80
2022-09-09T06:47:56.382Z,24.77
2022-09-09T06:48:44.304Z,24.78
2022-09-09T06:49:32.656Z,24.81
2022-09-09T06:50:20.851Z,24.85
2022-09-09T06:51:10.507Z,24.83
2022-09-09T06:52:05.618Z,24.82
2022-09-09T06:52:56.788Z,24.78
2022-09-09T06:53:48.073Z,24.81
2022-09-09T06:55:21.835Z,24.76
2022-09-09T06:56:14.782Z,24.75
2022-09-09T06:57:20.795Z,24.76
2022-09-09T06:58:11.443Z,24.77
2022-09-09T06:59:00.273Z,24.78
2022-09-09T06:59:49.042Z,24.77
2022-09-09T07:00:36.982Z,24.79
2022-09-09T07:01:26.114Z,24.79
2022-09-09T07:02:19.865Z,24.77
2022-09-09T07:03:07.923Z,24.74
2022-09-09T07:04:00.381Z,24.76
2022-09-09T07:04:49.762Z,24.76
2022-09-09T07:05:40.274Z,24.75
2022-09-09T07:06:35.330Z,24.72
2022-09-09T07:07:31.250Z,24.71
2022-09-09T07:08:21.247Z,24.69
2022-09-09T07:09:12.675Z,24.72
2022-09-09T07:10:03.959Z,24.73
2022-09-09T07:10:55.616Z,24.72
2022-09-09T07:11:46.328Z,24.73
2022-09-09T07:12:44.332Z,24.72
2022-09-09T07:13:38.201Z,24.69
2022-09-09T07:14:28.311Z,24.73
2022-09-09T07:15:18.208Z,24.73
2022-09-09T07:16:08.271Z,24.72
2022-09-09T07:16:59.525Z,24.71
2022-09-09T07:17:53.134Z,24.74
2022-09-09T07:18:42.898Z,24.74
2022-09-09T07:19:32.662Z,24.74
2022-09-09T07:20:22.921Z,24.71
2022-09-09T07:21:12.386Z,24.66
2022-09-09T07:22:03.814Z,24.72
2022-09-09T07:22:59.576Z,24.75
2022-09-09T07:23:53.004Z,24.72
2022-09-09T07:24:44.786Z,24.73
2022-09-09T07:25:37.002Z,24.75
2022-09-09T07:26:27.269Z,24.69
2022-09-09T07:27:16.614Z,24.69
2022-09-09T07:28:08.627Z,24.71
2022-09-09T07:28:56.664Z,24.72
2022-09-09T07:29:45.503Z,24.76
2022-09-09T07:30:35.582Z,24.75
2022-09-09T07:31:25.428Z,24.75
2022-09-09T07:32:14.633Z,24.77
2022-09-09T07:33:03.101Z,24.72
2022-09-09T07:33:58.733Z,24.76
2022-09-09T07:34:47.397Z,24.73
2022-09-09T07:35:36.604Z,24.74
2022-09-09T07:36:33.878Z,24.73
2022-09-09T07:37:23.572Z,24.74
2022-09-09T07:38:12.817Z,24.72
2022-09-09T07:39:09.979Z,24.73
2022-09-09T07:40:00.733Z,24.75
2022-09-09T07:40:53.329Z,24.74
2022-09-09T07:41:43.534Z,24.74
2022-09-09T07:42:35.282Z,24.69
2022-09-09T07:43:27.806Z,24.72
2022-09-09T07:44:26.117Z,24.76
2022-09-09T07:45:13.774Z,24.70
2022-09-09T07:46:06.923Z,24.62
2022-09-09T07:46:59.032Z,24.61
2022-09-09T07:47:51.788Z,24.67
2022-09-09T07:48:44.060Z,24.69
2022-09-09T07:49:36.671Z,24.69
2022-09-09T07:50:27.885Z,24.66
2022-09-09T07:51:19.379Z,24.71
2022-09-09T07:52:09.344Z,24.73
2022-09-09T07:53:05.887Z,24.71
2022-09-09T07:53:58.263Z,24.69
2022-09-09T07:54:50.438Z,24.67
2022-09-09T07:55:41.815Z,24.64
2022-09-09T07:56:33.701Z,24.71
2022-09-09T07:57:23.048Z,24.66
2022-09-09T07:58:13.572Z,24.70
2022-09-09T07:59:02.969Z,24.67
2022-09-09T07:59:54.166Z,24.69
2022-09-09T08:00:45.442Z,24.71
2022-09-09T08:01:36.965Z,24.65
2022-09-09T08:02:25.906Z,24.65
2022-09-09T08:03:16.207Z,24.64
2022-09-09T08:04:05.594Z,24.64
2022-09-09T08:04:55.269Z,24.67
2022-09-09T08:05:43.078Z,24.65
2022-09-09T08:06:31.253Z,24.63
2022-09-09T08:07:17.431Z,24.67
2022-09-09T08:08:07.438Z,24.64
2022-09-09T08:08:55.724Z,24.67
2022-09-09T08:09:45.522Z,24.64
2022-09-09T08:10:35.324Z,24.65
2022-09-09T08:11:27.691Z,24.69
2022-09-09T08:12:17.487Z,24.60
2022-09-09T08:13:17.784Z,24.59
2022-09-09T08:14:05.589Z,24.61
2022-09-09T08:14:55.871Z,24.61
2022-09-09T08:15:44.202Z,24.59
2022-09-09T08:16:35.766Z,24.63
2022-09-09T08:17:25.229Z,24.62
2022-09-09T08:18:18.376Z,24.64
2022-09-09T08:19:06.216Z,24.63
2022-09-09T08:19:56.704Z,24.64
2022-09-09T08:20:44.681Z,24.63
2022-09-09T08:21:34.256Z,24.60
2022-09-09T08:22:23.015Z,24.59
2022-09-09T08:23:15.465Z,24.62
2022-09-09T08:24:03.972Z,24.61
2022-09-09T08:24:53.141Z,24.62
2022-09-09T08:25:42.517Z,24.61
2022-09-09T08:26:30.549Z,24.63
2022-09-09T08:27:20.134Z,24.65
2022-09-09T08:28:11.617Z,24.63
2022-09-09T08:29:00.602Z,24.62
2022-09-09T08:29:49.264Z,24.59
2022-09-09T08:30:36.430Z,24.59
2022-09-09T08:32:13.984Z,24.59
2022-09-09T08:33:03.066Z,24.59
2022-09-09T08:33:58.061Z,24.61
2022-09-09T08:34:46.744Z,24.60
2022-09-09T08:35:35.740Z,24.63
2022-09-09T08:36:24.891Z,24.64
2022-09-09T08:37:14.371Z,24.62
2022-09-09T08:38:07.662Z,24.60
2022-09-09T08:39:07.539Z,24.60
2022-09-09T08:39:58.701Z,24.62
2022-09-09T08:40:48.090Z,24.63
2022-09-09T08:41:31.585Z,24.62
2022-09-09T08:42:28.787Z,24.63
2022-09-09T08:43:21.273Z,24.64
2022-09-09T08:44:20.353Z,24.65
2022-09-09T08:45:29.333Z,24.63
2022-09-09T08:46:38.196Z,24.63
2022-09-09T08:47:31.764Z,24.62
2022-09-09T08:48:21.947Z,24.62
2022-09-09T08:49:14.230Z,24.58
2022-09-09T08:50:17.636Z,24.63
2022-09-09T08:51:10.217Z,24.61
2022-09-09T08:52:02.865Z,24.61
2022-09-09T08:52:49.228Z,24.56
2022-09-09T08:53:39.795Z,24.61
2022-09-09T08:54:51.201Z,24.63
2022-09-09T08:55:37.142Z,24.57
2022-09-09T08:56:25.318Z,24.60
2022-09-09T08:57:14.325Z,24.61
2022-09-09T08:57:56.621Z,24.62
2022-09-09T08:58:49.889Z,24.62
2022-09-09T08:59:41.548Z,24.63
2022-09-09T09:00:33.750Z,24.66
2022-09-09T09:01:15.521Z,24.61
2022-09-09T09:02:22.632Z,24.63
2022-09-09T09:03:14.324Z,24.66
2022-09-09T09:04:11.712Z,24.64
2022-09-09T09:04:56.613Z,24.61
2022-09-09T09:05:57.064Z,24.62
2022-09-09T09:07:06.917Z,24.67
2022-09-09T09:08:10.414Z,24.61
2022-09-09T09:09:14.248Z,24.60
2022-09-09T09:10:15.189Z,24.56
2022-09-09T09:11:13.536Z,24.55
2022-09-09T09:12:03.648Z,24.56
2022-09-09T09:12:53.944Z,24.55
2022-09-09T09:13:35.044Z,24.57
2022-09-09T09:15:32.900Z,24.56
2022-09-09T09:16:30.666Z,24.54
2022-09-09T09:17:21.492Z,24.54
2022-09-09T09:18:10.383Z,24.54
2022-09-09T09:19:03.305Z,24.58
2022-09-09T09:19:51.151Z,24.54
2022-09-09T09:20:49.870Z,24.60
2022-09-09T09:21:41.281Z,24.58
2022-09-09T09:22:48.288Z,24.58
2022-09-09T09:23:46.479Z,24.57
2022-09-09T09:24:37.974Z,24.54
2022-09-09T09:25:31.345Z,24.57
2022-09-09T09:26:21.640Z,24.54
2022-09-09T09:27:09.499Z,24.55
2022-09-09T09:28:03.262Z,24.54
2022-09-09T09:30:03.161Z,24.58
2022-09-09T09:30:50.005Z,24.55
2022-09-09T09:31:40.792Z,24.56
2022-09-09T09:32:32.002Z,24.54
2022-09-09T09:33:26.565Z,24.58
2022-09-09T09:35:22.520Z,24.58
2022-09-09T09:36:14.068Z,24.57
2022-09-09T09:37:10.677Z,24.57
2022-09-09T09:41:39.587Z,24.56
2022-09-09T09:42:35.024Z,24.57
2022-09-09T09:43:32.226Z,24.60
2022-09-09T09:44:35.797Z,24.60
2022-09-09T09:45:55.237Z,24.55
2022-09-09T09:46:52.850Z,24.55
2022-09-09T09:47:46.465Z,24.55
2022-09-09T09:48:40.667Z,24.55
2022-09-09T09:49:34.549Z,24.54
2022-09-09T09:51:34.584Z,24.62
2022-09-09T09:52:27.588Z,24.65
2022-09-09T09:53:21.451Z,24.63
2022-09-09T09:54:22.061Z,24.66
2022-09-09T09:55:18.184Z,24.63
2022-09-09T09:56:07.599Z,24.59
2022-09-09T09:56:58.484Z,24.59
2022-09-09T09:57:49.168Z,24.58
2022-09-09T09:58:39.438Z,24.61
2022-09-09T09:59:40.717Z,24.62
2022-09-09T10:00:35.879Z,24.57
2022-09-09T10:01:26.269Z,24.60
2022-09-09T10:02:25.876Z,24.64
2022-09-09T10:03:25.618Z,24.67
2022-09-09T10:04:33.016Z,24.64
2022-09-09T10:05:37.806Z,24.67
2022-09-09T10:06:28.479Z,24.61
2022-09-09T10:07:26.957Z,24.63
2022-09-09T10:08:09.916Z,24.61
2022-09-09T10:09:04.073Z,24.62
2022-09-09T10:09:56.597Z,24.60
2022-09-09T10:10:52.893Z,24.63
2022-09-09T10:11:46.544Z,24.60
2022-09-09T10:12:31.648Z,24.65
2022-09-09T10:13:25.890Z,24.65
2022-09-09T10:14:38.447Z,24.67
2022-09-09T10:15:55.597Z,24.65
2022-09-09T10:17:06.034Z,24.67
2022-09-09T10:17:58.490Z,24.66
2022-09-09T10:18:40.527Z,24.65
2022-09-09T10:19:31.453Z,24.67
2022-09-09T10:20:24.841Z,24.64
2022-09-09T10:21:33.052Z,24.65
2022-09-09T10:22:37.148Z,24.69
2022-09-09T10:23:32.817Z,24.66
2022-09-09T10:24:25.533Z,24.63
2022-09-09T10:25:14.208Z,24.62
2022-09-09T10:26:20.601Z,24.64
2022-09-09T10:27:29.192Z,24.67
2022-09-09T10:28:26.927Z,24.69
2022-09-09T10:29:22.058Z,24.72
2022-09-09T10:30:28.590Z,24.72
2022-09-09T10:31:40.840Z,24.73
2022-09-09T10:32:40.938Z,24.66
2022-09-09T10:33:35.306Z,24.64
2022-09-09T10:34:47.478Z,24.69
2022-09-09T10:35:54.899Z,24.69
2022-09-09T10:36:47.423Z,24.70
2022-09-09T10:37:32.208Z,24.66
2022-09-09T10:38:29.302Z,24.69
2022-09-09T10:39:33.220Z,24.67
2022-09-09T10:40:23.966Z,24.70
2022-09-09T10:41:17.900Z,24.72
2022-09-09T10:42:03.254Z,24.66
2022-09-09T10:42:53.531Z,24.70
2022-09-09T10:44:00.177Z,24.71
2022-09-09T10:44:46.917Z,24.74
2022-09-09T10:45:39.006Z,24.73
2022-09-09T10:46:39.153Z,24.75
2022-09-09T10:47:42.763Z,24.73
2022-09-09T10:48:39.548Z,24.73
2022-09-09T10:49:25.556Z,24.76
2022-09-09T10:50:59.863Z,24.76
2022-09-09T10:51:35.984Z,24.70
2022-09-09T10:52:27.817Z,24.72
2022-09-09T10:53:31.517Z,24.75
2022-09-09T10:54:34.525Z,24.74
2022-09-09T10:55:31.924Z,24.73
2022-09-09T10:56:29.615Z,24.73
2022-09-09T10:57:28.859Z,24.77
2022-09-09T10:58:23.242Z,24.76
2022-09-09T10:59:20.142Z,24.81
2022-09-09T11:00:17.524Z,24.71
2022-09-09T11:01:11.413Z,24.75
2022-09-09T11:02:05.609Z,24.76
2022-09-09T11:02:59.693Z,24.76
2022-09-09T11:03:51.018Z,24.76
2022-09-09T11:04:42.902Z,24.75
2022-09-09T11:05:37.265Z,24.74
2022-09-09T11:06:29.213Z,24.70
2022-09-09T11:07:20.949Z,24.75
2022-09-09T11:08:11.410Z,24.77
2022-09-09T11:09:01.629Z,24.76
2022-09-09T11:09:51.604Z,24.76
2022-09-09T11:10:55.839Z,24.71
2022-09-09T11:12:04.314Z,24.74
2022-09-09T11:12:52.742Z,24.76
2022-09-09T11:13:38.094Z,24.79
2022-09-09T11:14:40.834Z,24.77
2022-09-09T11:15:38.927Z,24.81
2022-09-09T11:16:22.277Z,24.83
2022-09-09T11:17:10.879Z,24.81
2022-09-09T11:18:02.347Z,24.77
2022-09-09T11:18:54.464Z,24.80
2022-09-09T11:19:48.824Z,24.78
2022-09-09T11:20:45.280Z,24.79
2022-09-09T11:21:36.337Z,24.75
2022-09-09T11:22:34.268Z,24.74
2022-09-09T11:23:25.045Z,24.74
2022-09-09T11:24:17.587Z,24.75
2022-09-09T11:25:15.239Z,24.73
2022-09-09T11:26:15.468Z,24.75
2022-09-09T11:27:13.088Z,24.61
2022-09-09T11:28:01.103Z,24.47
2022-09-09T11:29:04.946Z,24.42
2022-09-09T11:30:02.091Z,24.45
2022-09-09T11:31:02.816Z,24.46
2022-09-09T11:31:58.897Z,24.55
2022-09-09T11:32:40.257Z,24.48
2022-09-09T11:33:25.098Z,24.52
2022-09-09T11:34:29.610Z,24.57
2022-09-09T11:35:33.671Z,24.62
2022-09-09T11:36:43.937Z,24.64
2022-09-09T11:37:27.859Z,24.62
2022-09-09T11:38:18.581Z,24.66
2022-09-09T11:39:15.192Z,24.73
2022-09-09T11:40:26.497Z,24.74
2022-09-09T11:42:17.658Z,24.81
2022-09-09T11:43:15.689Z,24.82
2022-09-09T11:44:06.216Z,24.83
2022-09-09T11:44:56.787Z,24.85
2022-09-09T11:45:48.859Z,24.87
2022-09-09T11:46:55.593Z,24.89
2022-09-09T11:47:47.357Z,24.88